createdAt,value
2023-03-03T00:00:05.709Z,3.85
2023-03-03T00:05:07.471Z,3.45
2023-03-03T00:10:09.484Z,3.72
2023-03-03T00:15:22.784Z,3.72
2023-03-03T00:20:35.493Z,3.45
2023-03-03T00:25:37.183Z,3.13
2023-03-03T00:30:38.657Z,2.95
2023-03-03T00:35:41.495Z,3.67
2023-03-03T00:40:43.178Z,2.95
2023-03-03T00:45:55.754Z,3.15
2023-03-03T00:51:02.008Z,2.85
2023-03-03T00:56:03.559Z,2.72
2023-03-03T01:01:05.242Z,3.00
2023-03-03T01:06:07.408Z,2.90
2023-03-03T01:11:13.828Z,2.63
2023-03-03T01:16:15.506Z,2.50
2023-03-03T01:21:17.095Z,2.65
2023-03-03T01:26:18.605Z,2.92
2023-03-03T01:31:20.390Z,2.85
2023-03-03T01:36:26.809Z,2.35
2023-03-03T01:41:30.194Z,2.10
2023-03-03T01:46:56.575Z,2.75
2023-03-03T01:52:11.908Z,2.05
2023-03-03T01:57:28.678Z,2.40
2023-03-03T02:02:31.441Z,2.40
2023-03-03T02:07:33.530Z,1.83
2023-03-03T02:12:48.351Z,2.47
2023-03-03T02:17:54.438Z,2.15
2023-03-03T02:23:07.723Z,1.95
2023-03-03T02:28:09.413Z,2.35
2023-03-03T02:33:10.891Z,2.53
2023-03-03T02:38:15.002Z,2.03
2023-03-03T02:43:19.672Z,2.05
2023-03-03T02:48:21.128Z,2.25
2023-03-03T02:53:22.670Z,2.00
2023-03-03T02:58:24.271Z,2.45
2023-03-03T03:03:25.739Z,2.42
2023-03-03T03:08:27.211Z,2.20
2023-03-03T03:13:28.780Z,2.08
2023-03-03T03:18:30.307Z,2.67
2023-03-03T03:23:32.011Z,2.20
2023-03-03T03:28:34.057Z,2.45
2023-03-03T03:33:36.278Z,2.53
2023-03-03T03:38:39.196Z,2.20
2023-03-03T03:43:40.970Z,1.80
2023-03-03T03:48:42.462Z,2.40
2023-03-03T03:53:43.972Z,1.92
2023-03-03T03:58:45.479Z,2.22
2023-03-03T04:03:47.182Z,2.90
2023-03-03T04:08:48.720Z,2.10
2023-03-03T04:13:50.306Z,2.22
2023-03-03T04:18:51.828Z,1.90
2023-03-03T04:23:53.730Z,2.00
2023-03-03T04:28:55.251Z,2.38
2023-03-03T04:33:56.810Z,3.20
2023-03-03T04:38:58.355Z,2.22
2023-03-03T04:43:59.902Z,2.05
2023-03-03T04:49:01.528Z,1.98
2023-03-03T04:54:03.093Z,2.38
2023-03-03T04:59:04.598Z,2.03
2023-03-03T05:04:06.271Z,1.98
2023-03-03T05:09:07.892Z,2.20
2023-03-03T05:14:09.453Z,1.95
2023-03-03T05:19:10.943Z,1.85
2023-03-03T05:24:13.932Z,2.08
2023-03-03T05:29:15.434Z,2.75
2023-03-03T05:34:16.977Z,2.22
2023-03-03T05:39:18.715Z,1.77
2023-03-03T05:44:20.819Z,2.10
2023-03-03T05:49:22.428Z,2.17
2023-03-03T05:54:23.991Z,2.17
2023-03-03T05:59:25.534Z,2.67
2023-03-03T06:04:27.044Z,1.83
2023-03-03T06:09:28.630Z,2.00
2023-03-03T06:14:30.275Z,2.28
2023-03-03T06:19:32.122Z,2.10
2023-03-03T06:24:34.041Z,1.73
2023-03-03T06:29:35.550Z,2.20
2023-03-03T06:34:37.135Z,1.83
2023-03-03T06:39:38.789Z,1.52
2023-03-03T06:44:40.305Z,1.80
2023-03-03T06:49:41.864Z,1.95
2023-03-03T06:54:43.402Z,1.70
2023-03-03T06:59:47.422Z,2.00
2023-03-03T07:04:49.309Z,1.70
2023-03-03T07:09:53.678Z,1.52
2023-03-03T07:15:10.420Z,1.75
2023-03-03T07:20:19.644Z,1.98
2023-03-03T07:25:30.808Z,1.80
2023-03-03T07:30:32.935Z,1.75
2023-03-03T07:35:41.083Z,1.50
2023-03-03T07:45:49.315Z,1.75
2023-03-03T07:50:51.581Z,1.88
2023-03-03T07:55:53.440Z,3.05
2023-03-03T08:01:39.966Z,3.00
2023-03-03T08:06:46.751Z,1.25
2023-03-03T08:12:09.349Z,1.35
2023-03-03T08:17:36.987Z,1.20
2023-03-03T08:22:38.634Z,1.43
2023-03-03T08:27:40.118Z,1.75
2023-03-03T08:32:41.737Z,1.10
2023-03-03T08:37:43.336Z,1.80
2023-03-03T08:42:44.950Z,1.35
2023-03-03T08:47:46.806Z,1.20
2023-03-03T08:52:48.336Z,1.02
2023-03-03T08:57:49.888Z,1.45
2023-03-03T09:02:51.669Z,0.60
2023-03-03T09:07:53.637Z,0.82
2023-03-03T09:12:58.946Z,1.63
2023-03-03T09:18:23.695Z,0.80
2023-03-03T09:23:33.957Z,0.70
2023-03-03T09:28:36.158Z,0.90
2023-03-03T09:33:43.958Z,0.80
2023-03-03T09:43:59.238Z,0.90
2023-03-03T09:49:35.105Z,0.70
2023-03-03T09:54:50.462Z,1.00
2023-03-03T10:00:06.456Z,0.95
2023-03-03T10:05:41.671Z,0.50
2023-03-03T10:11:01.570Z,1.13
2023-03-03T10:16:12.177Z,0.50
2023-03-03T10:21:59.331Z,0.95
2023-03-03T10:27:30.375Z,0.65
2023-03-03T10:33:01.091Z,0.70
2023-03-03T10:38:18.692Z,1.42
2023-03-03T10:43:31.733Z,0.60
2023-03-03T10:49:02.295Z,0.70
2023-03-03T10:54:21.058Z,0.47
2023-03-03T10:59:50.367Z,0.70
2023-03-03T11:05:10.582Z,0.60
2023-03-03T11:10:33.937Z,0.75
2023-03-03T11:15:47.625Z,0.60
2023-03-03T11:21:23.126Z,0.70
2023-03-03T11:26:24.786Z,1.42
2023-03-03T11:31:37.156Z,0.90
2023-03-03T11:36:46.042Z,0.75
2023-03-03T11:48:11.617Z,0.80
2023-03-03T11:53:29.459Z,0.68
2023-03-03T11:58:40.168Z,0.70
2023-03-03T12:03:48.922Z,1.52
2023-03-03T12:09:18.633Z,0.65
2023-03-03T12:14:38.893Z,0.77
2023-03-03T12:19:55.322Z,0.70
2023-03-03T12:25:16.230Z,0.90
2023-03-03T12:30:52.747Z,0.70
2023-03-03T12:36:12.225Z,0.60
2023-03-03T12:41:34.979Z,0.70
2023-03-03T12:46:59.643Z,0.77
2023-03-03T12:52:31.509Z,0.75
2023-03-03T12:57:48.710Z,0.60
2023-03-03T13:02:58.771Z,0.80
2023-03-03T13:08:09.163Z,1.08
2023-03-03T13:13:22.731Z,0.82
2023-03-03T13:18:48.671Z,1.00
2023-03-03T13:23:53.045Z,0.80
2023-03-03T13:29:04.600Z,1.30
2023-03-03T13:34:23.649Z,1.30
2023-03-03T13:39:42.875Z,1.35
2023-03-03T13:44:46.998Z,1.00
2023-03-03T13:50:04.213Z,1.42
2023-03-03T13:55:05.641Z,1.20
2023-03-03T14:00:21.336Z,1.33
2023-03-03T14:05:28.585Z,2.58
2023-03-03T14:10:59.933Z,1.52
2023-03-03T14:16:16.965Z,1.42
2023-03-03T14:21:27.304Z,1.97
2023-03-03T14:26:28.837Z,1.63
2023-03-03T14:31:39.675Z,1.63
2023-03-03T14:36:43.499Z,2.38
2023-03-03T14:41:44.999Z,2.30
2023-03-03T14:46:46.535Z,2.58
2023-03-03T14:51:50.173Z,3.90
2023-03-03T14:57:10.732Z,3.35
2023-03-03T15:02:18.471Z,3.33
2023-03-03T15:12:37.175Z,2.67
2023-03-03T15:17:44.469Z,3.35
2023-03-03T15:22:48.574Z,3.38
2023-03-03T15:27:53.374Z,4.03
2023-03-03T15:33:14.247Z,2.58
2023-03-03T15:38:26.729Z,2.70
2023-03-03T15:43:46.024Z,2.53
2023-03-03T15:49:12.202Z,3.55
2023-03-03T15:54:26.346Z,3.63
2023-03-03T15:59:58.501Z,3.45
2023-03-03T16:05:08.277Z,3.20
2023-03-03T16:10:47.199Z,3.30
2023-03-03T16:16:00.685Z,3.92
2023-03-03T16:21:27.097Z,4.05
2023-03-03T16:27:05.999Z,3.80
2023-03-03T16:32:10.520Z,3.92
2023-03-03T16:37:23.188Z,4.05
2023-03-03T16:42:33.056Z,3.75
2023-03-03T16:47:41.955Z,3.20
2023-03-03T16:52:48.127Z,3.35
2023-03-03T16:58:01.501Z,3.35
2023-03-03T17:03:19.569Z,3.72
2023-03-03T17:13:28.317Z,4.10
2023-03-03T17:18:44.671Z,3.30
2023-03-03T17:24:14.066Z,4.00
2023-03-03T17:29:57.207Z,3.53
2023-03-03T17:35:20.260Z,3.22
2023-03-03T17:40:37.574Z,3.65
2023-03-03T17:45:43.175Z,3.40
2023-03-03T17:50:59.980Z,3.83
2023-03-03T17:56:20.092Z,3.55
2023-03-03T18:01:39.807Z,3.92
2023-03-03T18:07:05.846Z,3.85
2023-03-03T18:12:07.274Z,5.15
2023-03-03T18:17:42.714Z,3.60
2023-03-03T18:22:55.020Z,3.53
2023-03-03T18:27:59.524Z,3.30
2023-03-03T18:33:10.158Z,4.05
2023-03-03T18:38:17.620Z,4.63
2023-03-03T18:43:43.926Z,4.00
2023-03-03T18:49:06.704Z,4.78
2023-03-03T18:54:17.363Z,3.78
2023-03-03T18:59:34.172Z,4.90
2023-03-03T19:04:37.529Z,5.32
2023-03-03T19:09:56.969Z,3.55
2023-03-03T19:14:58.694Z,3.72
2023-03-03T19:20:18.048Z,3.65
2023-03-03T19:25:28.118Z,3.58
2023-03-03T19:30:56.089Z,3.40
2023-03-03T19:36:25.159Z,5.63
2023-03-03T19:41:52.835Z,4.32
2023-03-03T19:46:55.932Z,3.37
2023-03-03T19:52:22.563Z,3.53
2023-03-03T19:57:35.101Z,3.40
2023-03-03T20:02:42.277Z,2.92
2023-03-03T20:07:59.439Z,3.10
2023-03-03T20:13:30.506Z,4.43
2023-03-03T20:19:00.785Z,3.35
2023-03-03T20:24:16.624Z,3.88
2023-03-03T20:29:50.173Z,2.97
2023-03-03T20:35:16.469Z,4.00
2023-03-03T20:40:38.175Z,3.25
2023-03-03T20:46:02.890Z,2.92
2023-03-03T20:51:29.975Z,3.35
2023-03-03T20:56:43.916Z,3.25
2023-03-03T21:02:16.086Z,4.47
2023-03-03T21:07:26.643Z,4.22
2023-03-03T21:12:30.716Z,3.17
2023-03-03T21:17:32.353Z,2.78
2023-03-03T21:22:33.867Z,3.08
2023-03-03T21:27:37.103Z,3.13
2023-03-03T21:32:42.917Z,4.10
2023-03-03T21:37:48.749Z,4.85
2023-03-03T21:42:52.036Z,3.13
2023-03-03T21:47:55.042Z,4.05
2023-03-03T21:52:56.575Z,3.72
2023-03-03T21:57:58.116Z,2.67
2023-03-03T22:02:59.939Z,3.30
2023-03-03T22:08:01.490Z,2.63
2023-03-03T22:13:03.018Z,2.95
2023-03-03T22:18:04.595Z,2.80
2023-03-03T22:23:06.057Z,3.25
2023-03-03T22:28:07.667Z,2.90
2023-03-03T22:33:09.345Z,2.85
2023-03-03T22:38:10.931Z,2.83
2023-03-03T22:43:14.513Z,3.00
2023-03-03T22:48:16.003Z,2.78
2023-03-03T22:53:18.050Z,3.00
2023-03-03T22:58:20.652Z,3.08
2023-03-03T23:03:22.627Z,2.53
2023-03-03T23:08:24.512Z,3.03
2023-03-03T23:13:27.117Z,2.75
2023-03-03T23:18:29.552Z,3.63
2023-03-03T23:23:31.824Z,2.85
2023-03-03T23:28:33.374Z,2.72
2023-03-03T23:33:35.402Z,3.25
2023-03-03T23:38:36.942Z,3.03
2023-03-03T23:43:38.728Z,3.42
2023-03-03T23:48:40.266Z,2.75
2023-03-03T23:53:41.805Z,2.13
2023-03-03T23:58:43.350Z,2.33
